sensor_id;sensor_type;location;lat;lon;timestamp;temperature;humidity
19340;HTU21D;9804;52.350;6.684;2023-09-30T00:02:21;14.95;63.18
19340;HTU21D;9804;52.350;6.684;2023-09-30T00:04:47;14.84;75.99
19340;HTU21D;9804;52.350;6.684;2023-09-30T00:07:12;14.91;101.20
19340;HTU21D;9804;52.350;6.684;2023-09-30T00:09:37;14.96;87.98
19340;HTU21D;9804;52.350;6.684;2023-09-30T00:12:03;14.93;79.74
19340;HTU21D;9804;52.350;6.684;2023-09-30T00:14:28;14.84;71.36
19340;HTU21D;9804;52.350;6.684;2023-09-30T00:16:54;14.86;85.26
19340;HTU21D;9804;52.350;6.684;2023-09-30T00:19:20;14.88;100.53
19340;HTU21D;9804;52.350;6.684;2023-09-30T00:21:48;14.93;103.88
19340;HTU21D;9804;52.350;6.684;2023-09-30T00:24:13;14.98;95.05
19340;HTU21D;9804;52.350;6.684;2023-09-30T00:26:39;14.97;90.70
19340;HTU21D;9804;52.350;6.684;2023-09-30T00:29:04;14.96;88.02
19340;HTU21D;9804;52.350;6.684;2023-09-30T00:31:30;14.89;86.79
19340;HTU21D;9804;52.350;6.684;2023-09-30T00:33:56;14.98;94.37
19340;HTU21D;9804;52.350;6.684;2023-09-30T00:36:21;15.00;80.75
19340;HTU21D;9804;52.350;6.684;2023-09-30T00:38:47;14.95;79.79
19340;HTU21D;9804;52.350;6.684;2023-09-30T00:41:12;14.94;69.04
19340;HTU21D;9804;52.350;6.684;2023-09-30T00:43:38;14.96;78.37
19340;HTU21D;9804;52.350;6.684;2023-09-30T00:46:28;15.00;71.32
19340;HTU21D;9804;52.350;6.684;2023-09-30T00:48:55;14.96;69.96
19340;HTU21D;9804;52.350;6.684;2023-09-30T00:51:22;14.97;89.18
19340;HTU21D;9804;52.350;6.684;2023-09-30T00:53:52;15.00;95.00
19340;HTU21D;9804;52.350;6.684;2023-09-30T00:56:22;15.03;82.76
19340;HTU21D;9804;52.350;6.684;2023-09-30T00:58:48;15.08;83.69
19340;HTU21D;9804;52.350;6.684;2023-09-30T01:01:16;15.02;80.48
19340;HTU21D;9804;52.350;6.684;2023-09-30T01:03:41;15.08;77.34
19340;HTU21D;9804;52.350;6.684;2023-09-30T01:06:07;15.08;72.74
19340;HTU21D;9804;52.350;6.684;2023-09-30T01:08:33;15.08;74.32
19340;HTU21D;9804;52.350;6.684;2023-09-30T01:10:59;15.10;69.29
19340;HTU21D;9804;52.350;6.684;2023-09-30T01:13:36;15.03;79.66
19340;HTU21D;9804;52.350;6.684;2023-09-30T01:16:05;15.02;75.42
19340;HTU21D;9804;52.350;6.684;2023-09-30T01:18:31;15.04;74.89
19340;HTU21D;9804;52.350;6.684;2023-09-30T01:21:01;15.02;81.56
19340;HTU21D;9804;52.350;6.684;2023-09-30T01:23:29;15.02;79.76
19340;HTU21D;9804;52.350;6.684;2023-09-30T01:25:54;14.97;88.67
19340;HTU21D;9804;52.350;6.684;2023-09-30T01:28:20;15.00;88.51
19340;HTU21D;9804;52.350;6.684;2023-09-30T01:30:45;15.01;88.30
19340;HTU21D;9804;52.350;6.684;2023-09-30T01:33:11;15.00;77.75
19340;HTU21D;9804;52.350;6.684;2023-09-30T01:35:36;14.94;92.59
19340;HTU21D;9804;52.350;6.684;2023-09-30T01:38:01;14.97;102.08
19340;HTU21D;9804;52.350;6.684;2023-09-30T01:40:27;14.89;94.91
19340;HTU21D;9804;52.350;6.684;2023-09-30T01:42:52;14.84;115.74
19340;HTU21D;9804;52.350;6.684;2023-09-30T01:45:18;14.89;101.03
19340;HTU21D;9804;52.350;6.684;2023-09-30T01:47:43;14.88;106.13
19340;HTU21D;9804;52.350;6.684;2023-09-30T01:50:09;14.93;100.00
19340;HTU21D;9804;52.350;6.684;2023-09-30T01:52:34;14.87;99.53
19340;HTU21D;9804;52.350;6.684;2023-09-30T01:54:59;14.87;106.01
19340;HTU21D;9804;52.350;6.684;2023-09-30T01:57:25;14.85;100.95
19340;HTU21D;9804;52.350;6.684;2023-09-30T01:59:50;14.77;113.38
19340;HTU21D;9804;52.350;6.684;2023-09-30T02:02:16;14.79;118.21
19340;HTU21D;9804;52.350;6.684;2023-09-30T02:04:42;14.78;118.99
19340;HTU21D;9804;52.350;6.684;2023-09-30T02:07:09;14.70;118.99
19340;HTU21D;9804;52.350;6.684;2023-09-30T02:09:34;14.68;118.99
19340;HTU21D;9804;52.350;6.684;2023-09-30T02:11:59;14.70;118.99
19340;HTU21D;9804;52.350;6.684;2023-09-30T02:14:25;14.66;118.99
19340;HTU21D;9804;52.350;6.684;2023-09-30T02:16:51;14.71;118.99
19340;HTU21D;9804;52.350;6.684;2023-09-30T02:19:16;14.70;118.99
19340;HTU21D;9804;52.350;6.684;2023-09-30T02:21:41;14.68;118.99
19340;HTU21D;9804;52.350;6.684;2023-09-30T02:24:07;14.69;116.08
19340;HTU21D;9804;52.350;6.684;2023-09-30T02:26:33;14.68;118.99
19340;HTU21D;9804;52.350;6.684;2023-09-30T02:28:58;14.66;115.96
19340;HTU21D;9804;52.350;6.684;2023-09-30T02:31:24;14.62;118.99
19340;HTU21D;9804;52.350;6.684;2023-09-30T02:33:49;14.54;118.99
19340;HTU21D;9804;52.350;6.684;2023-09-30T02:36:15;14.63;118.99
19340;HTU21D;9804;52.350;6.684;2023-09-30T02:38:41;14.52;118.99
19340;HTU21D;9804;52.350;6.684;2023-09-30T02:41:07;14.60;118.99
19340;HTU21D;9804;52.350;6.684;2023-09-30T02:43:32;14.59;118.99
19340;HTU21D;9804;52.350;6.684;2023-09-30T02:45:58;14.57;118.99
19340;HTU21D;9804;52.350;6.684;2023-09-30T02:48:24;14.58;118.99
19340;HTU21D;9804;52.350;6.684;2023-09-30T02:50:49;14.55;118.99
19340;HTU21D;9804;52.350;6.684;2023-09-30T02:53:15;14.58;118.99
19340;HTU21D;9804;52.350;6.684;2023-09-30T02:55:41;14.54;118.99
19340;HTU21D;9804;52.350;6.684;2023-09-30T02:58:07;14.63;118.99
19340;HTU21D;9804;52.350;6.684;2023-09-30T03:00:34;14.62;118.99
19340;HTU21D;9804;52.350;6.684;2023-09-30T03:03:01;14.56;118.99
19340;HTU21D;9804;52.350;6.684;2023-09-30T03:05:27;14.58;118.99
19340;HTU21D;9804;52.350;6.684;2023-09-30T03:07:55;14.59;118.99
19340;HTU21D;9804;52.350;6.684;2023-09-30T03:10:21;14.55;118.99
19340;HTU21D;9804;52.350;6.684;2023-09-30T03:12:52;14.52;118.99
19340;HTU21D;9804;52.350;6.684;2023-09-30T03:15:17;14.49;118.99
19340;HTU21D;9804;52.350;6.684;2023-09-30T03:17:43;14.52;118.99
19340;HTU21D;9804;52.350;6.684;2023-09-30T03:20:09;14.49;118.99
19340;HTU21D;9804;52.350;6.684;2023-09-30T03:22:44;14.41;118.99
19340;HTU21D;9804;52.350;6.684;2023-09-30T03:25:14;14.47;118.99
19340;HTU21D;9804;52.350;6.684;2023-09-30T03:27:41;14.43;118.99
19340;HTU21D;9804;52.350;6.684;2023-09-30T03:30:07;14.40;118.99
19340;HTU21D;9804;52.350;6.684;2023-09-30T03:32:34;14.32;118.99
19340;HTU21D;9804;52.350;6.684;2023-09-30T03:35:04;14.37;118.99
19340;HTU21D;9804;52.350;6.684;2023-09-30T03:37:31;14.35;118.99
19340;HTU21D;9804;52.350;6.684;2023-09-30T03:39:57;14.33;118.99
19340;HTU21D;9804;52.350;6.684;2023-09-30T03:42:23;14.32;118.99
19340;HTU21D;9804;52.350;6.684;2023-09-30T03:44:49;14.25;118.99
19340;HTU21D;9804;52.350;6.684;2023-09-30T03:47:18;14.24;118.99
19340;HTU21D;9804;52.350;6.684;2023-09-30T03:49:44;14.28;118.99
19340;HTU21D;9804;52.350;6.684;2023-09-30T03:52:10;14.20;118.99
19340;HTU21D;9804;52.350;6.684;2023-09-30T03:54:36;14.32;118.99
19340;HTU21D;9804;52.350;6.684;2023-09-30T03:57:03;14.29;118.99
19340;HTU21D;9804;52.350;6.684;2023-09-30T03:59:29;14.26;118.99
19340;HTU21D;9804;52.350;6.684;2023-09-30T04:01:55;14.29;118.99
19340;HTU21D;9804;52.350;6.684;2023-09-30T04:04:22;14.25;118.99
19340;HTU21D;9804;52.350;6.684;2023-09-30T04:06:47;14.26;118.99
19340;HTU21D;9804;52.350;6.684;2023-09-30T04:09:13;14.15;118.99
19340;HTU21D;9804;52.350;6.684;2023-09-30T04:11:39;14.24;118.99
19340;HTU21D;9804;52.350;6.684;2023-09-30T04:14:08;14.25;118.99
19340;HTU21D;9804;52.350;6.684;2023-09-30T04:16:34;14.27;118.99
19340;HTU21D;9804;52.350;6.684;2023-09-30T04:19:00;14.14;118.99
19340;HTU21D;9804;52.350;6.684;2023-09-30T04:21:25;14.23;118.99
19340;HTU21D;9804;52.350;6.684;2023-09-30T04:23:53;14.25;118.99
19340;HTU21D;9804;52.350;6.684;2023-09-30T04:26:18;14.22;118.99
19340;HTU21D;9804;52.350;6.684;2023-09-30T04:28:43;14.23;118.99
19340;HTU21D;9804;52.350;6.684;2023-09-30T04:31:09;14.21;118.99
19340;HTU21D;9804;52.350;6.684;2023-09-30T04:33:35;14.25;118.99
19340;HTU21D;9804;52.350;6.684;2023-09-30T04:36:01;14.25;118.99
19340;HTU21D;9804;52.350;6.684;2023-09-30T04:38:27;14.29;118.99
19340;HTU21D;9804;52.350;6.684;2023-09-30T04:40:52;14.37;118.99
19340;HTU21D;9804;52.350;6.684;2023-09-30T04:43:19;14.39;118.99
19340;HTU21D;9804;52.350;6.684;2023-09-30T04:45:46;14.45;118.99
19340;HTU21D;9804;52.350;6.684;2023-09-30T04:48:12;14.38;118.99
19340;HTU21D;9804;52.350;6.684;2023-09-30T04:50:40;14.33;118.99
19340;HTU21D;9804;52.350;6.684;2023-09-30T04:53:06;14.33;118.99
19340;HTU21D;9804;52.350;6.684;2023-09-30T04:55:33;14.33;118.99
19340;HTU21D;9804;52.350;6.684;2023-09-30T04:57:58;14.33;118.99
19340;HTU21D;9804;52.350;6.684;2023-09-30T05:00:23;14.28;118.99
19340;HTU21D;9804;52.350;6.684;2023-09-30T05:02:55;14.22;118.99
19340;HTU21D;9804;52.350;6.684;2023-09-30T05:05:21;14.21;118.99
19340;HTU21D;9804;52.350;6.684;2023-09-30T05:07:46;14.21;118.99
19340;HTU21D;9804;52.350;6.684;2023-09-30T05:10:13;14.17;118.99
19340;HTU21D;9804;52.350;6.684;2023-09-30T05:12:45;14.15;118.99
19340;HTU21D;9804;52.350;6.684;2023-09-30T05:15:14;14.15;118.99
19340;HTU21D;9804;52.350;6.684;2023-09-30T05:17:45;14.12;118.99
19340;HTU21D;9804;52.350;6.684;2023-09-30T05:20:11;14.11;118.99
19340;HTU21D;9804;52.350;6.684;2023-09-30T05:22:38;14.13;118.99
19340;HTU21D;9804;52.350;6.684;2023-09-30T05:25:06;14.05;118.99
19340;HTU21D;9804;52.350;6.684;2023-09-30T05:27:32;14.12;118.99
19340;HTU21D;9804;52.350;6.684;2023-09-30T05:29:57;14.17;118.99
19340;HTU21D;9804;52.350;6.684;2023-09-30T05:32:23;14.10;118.99
19340;HTU21D;9804;52.350;6.684;2023-09-30T05:34:48;14.08;118.99
19340;HTU21D;9804;52.350;6.684;2023-09-30T05:37:14;14.12;118.99
19340;HTU21D;9804;52.350;6.684;2023-09-30T05:39:39;14.07;118.99
19340;HTU21D;9804;52.350;6.684;2023-09-30T05:42:05;14.10;118.99
19340;HTU21D;9804;52.350;6.684;2023-09-30T05:44:32;14.10;118.99
19340;HTU21D;9804;52.350;6.684;2023-09-30T05:46:57;14.10;118.99
19340;HTU21D;9804;52.350;6.684;2023-09-30T05:49:23;14.11;118.99
19340;HTU21D;9804;52.350;6.684;2023-09-30T05:51:49;14.09;118.99
19340;HTU21D;9804;52.350;6.684;2023-09-30T05:54:16;14.07;118.99
19340;HTU21D;9804;52.350;6.684;2023-09-30T05:56:41;14.11;118.99
19340;HTU21D;9804;52.350;6.684;2023-09-30T05:59:08;14.07;118.99
19340;HTU21D;9804;52.350;6.684;2023-09-30T06:01:34;14.08;118.99
19340;HTU21D;9804;52.350;6.684;2023-09-30T06:04:01;14.15;118.99
19340;HTU21D;9804;52.350;6.684;2023-09-30T06:06:27;14.20;118.99
19340;HTU21D;9804;52.350;6.684;2023-09-30T06:08:55;14.19;118.99
19340;HTU21D;9804;52.350;6.684;2023-09-30T06:11:23;14.22;118.99
19340;HTU21D;9804;52.350;6.684;2023-09-30T06:13:55;14.27;118.99
19340;HTU21D;9804;52.350;6.684;2023-09-30T06:16:21;14.29;118.99
19340;HTU21D;9804;52.350;6.684;2023-09-30T06:18:46;14.27;118.99
19340;HTU21D;9804;52.350;6.684;2023-09-30T06:21:13;14.34;118.99
19340;HTU21D;9804;52.350;6.684;2023-09-30T06:23:40;14.35;118.99
19340;HTU21D;9804;52.350;6.684;2023-09-30T06:26:06;14.35;118.99
19340;HTU21D;9804;52.350;6.684;2023-09-30T06:28:31;14.41;118.99
19340;HTU21D;9804;52.350;6.684;2023-09-30T06:30:59;14.42;118.99
19340;HTU21D;9804;52.350;6.684;2023-09-30T06:33:24;14.44;118.99
19340;HTU21D;9804;52.350;6.684;2023-09-30T06:35:50;14.47;118.99
19340;HTU21D;9804;52.350;6.684;2023-09-30T06:38:19;14.53;118.99
19340;HTU21D;9804;52.350;6.684;2023-09-30T06:40:44;14.50;118.99
19340;HTU21D;9804;52.350;6.684;2023-09-30T06:43:12;14.56;118.99
19340;HTU21D;9804;52.350;6.684;2023-09-30T06:45:37;14.68;118.99
19340;HTU21D;9804;52.350;6.684;2023-09-30T06:48:10;14.72;118.99
19340;HTU21D;9804;52.350;6.684;2023-09-30T06:50:43;14.79;118.99
19340;HTU21D;9804;52.350;6.684;2023-09-30T06:53:08;14.83;118.99
19340;HTU21D;9804;52.350;6.684;2023-09-30T06:55:36;14.84;118.99
19340;HTU21D;9804;52.350;6.684;2023-09-30T06:58:02;14.87;118.99
19340;HTU21D;9804;52.350;6.684;2023-09-30T07:00:27;14.94;118.99
19340;HTU21D;9804;52.350;6.684;2023-09-30T07:02:53;14.99;118.99
19340;HTU21D;9804;52.350;6.684;2023-09-30T07:05:19;15.04;118.99
19340;HTU21D;9804;52.350;6.684;2023-09-30T07:07:44;15.14;118.99
19340;HTU21D;9804;52.350;6.684;2023-09-30T07:10:11;15.19;118.99
19340;HTU21D;9804;52.350;6.684;2023-09-30T07:12:37;15.24;118.99
19340;HTU21D;9804;52.350;6.684;2023-09-30T07:15:03;15.30;118.99
19340;HTU21D;9804;52.350;6.684;2023-09-30T07:17:29;15.42;118.99
19340;HTU21D;9804;52.350;6.684;2023-09-30T07:19:55;15.29;118.99
19340;HTU21D;9804;52.350;6.684;2023-09-30T07:22:20;15.52;118.99
19340;HTU21D;9804;52.350;6.684;2023-09-30T07:24:46;15.49;118.99
19340;HTU21D;9804;52.350;6.684;2023-09-30T07:27:11;15.62;118.99
19340;HTU21D;9804;52.350;6.684;2023-09-30T07:29:37;15.73;118.99
19340;HTU21D;9804;52.350;6.684;2023-09-30T07:32:02;15.75;118.99
19340;HTU21D;9804;52.350;6.684;2023-09-30T07:34:27;15.73;118.99
19340;HTU21D;9804;52.350;6.684;2023-09-30T07:36:53;15.80;118.99
19340;HTU21D;9804;52.350;6.684;2023-09-30T07:39:18;15.88;118.99
19340;HTU21D;9804;52.350;6.684;2023-09-30T07:41:43;15.93;118.99
19340;HTU21D;9804;52.350;6.684;2023-09-30T07:44:09;16.01;118.99
19340;HTU21D;9804;52.350;6.684;2023-09-30T07:46:35;16.16;118.99
19340;HTU21D;9804;52.350;6.684;2023-09-30T07:49:00;16.19;118.99
19340;HTU21D;9804;52.350;6.684;2023-09-30T07:51:26;16.39;118.99
19340;HTU21D;9804;52.350;6.684;2023-09-30T07:53:51;16.41;118.99
19340;HTU21D;9804;52.350;6.684;2023-09-30T07:56:17;16.39;118.99
19340;HTU21D;9804;52.350;6.684;2023-09-30T07:58:42;16.67;118.99
19340;HTU21D;9804;52.350;6.684;2023-09-30T08:01:08;16.70;118.99
19340;HTU21D;9804;52.350;6.684;2023-09-30T08:03:33;16.81;118.99
19340;HTU21D;9804;52.350;6.684;2023-09-30T08:06:00;16.90;118.99
19340;HTU21D;9804;52.350;6.684;2023-09-30T08:08:25;17.00;118.99
19340;HTU21D;9804;52.350;6.684;2023-09-30T08:10:50;16.94;114.59
19340;HTU21D;9804;52.350;6.684;2023-09-30T08:13:21;16.99;118.99
19340;HTU21D;9804;52.350;6.684;2023-09-30T08:15:46;17.22;113.29
19340;HTU21D;9804;52.350;6.684;2023-09-30T08:18:11;17.35;85.93
19340;HTU21D;9804;52.350;6.684;2023-09-30T08:20:37;17.55;68.16
19340;HTU21D;9804;52.350;6.684;2023-09-30T08:23:02;17.81;30.38
19340;HTU21D;9804;52.350;6.684;2023-09-30T08:25:28;17.83;8.11
19340;HTU21D;9804;52.350;6.684;2023-09-30T08:27:54;17.93;-6.00
19340;HTU21D;9804;52.350;6.684;2023-09-30T08:30:19;18.20;-6.00
19340;HTU21D;9804;52.350;6.684;2023-09-30T08:32:45;18.47;-6.00
19340;HTU21D;9804;52.350;6.684;2023-09-30T08:35:12;18.35;-6.00
19340;HTU21D;9804;52.350;6.684;2023-09-30T08:37:39;18.55;-6.00
19340;HTU21D;9804;52.350;6.684;2023-09-30T08:40:05;18.68;-6.00
19340;HTU21D;9804;52.350;6.684;2023-09-30T08:42:32;18.87;-6.00
19340;HTU21D;9804;52.350;6.684;2023-09-30T08:44:59;18.84;-6.00
19340;HTU21D;9804;52.350;6.684;2023-09-30T08:47:28;18.70;-6.00
19340;HTU21D;9804;52.350;6.684;2023-09-30T08:49:59;18.61;-6.00
19340;HTU21D;9804;52.350;6.684;2023-09-30T08:52:31;19.06;-6.00
19340;HTU21D;9804;52.350;6.684;2023-09-30T08:54:57;19.12;-6.00
19340;HTU21D;9804;52.350;6.684;2023-09-30T08:57:24;19.16;-6.00
19340;HTU21D;9804;52.350;6.684;2023-09-30T08:59:50;19.39;-6.00
19340;HTU21D;9804;52.350;6.684;2023-09-30T09:02:18;19.52;-6.00
19340;HTU21D;9804;52.350;6.684;2023-09-30T09:04:45;19.43;-6.00
19340;HTU21D;9804;52.350;6.684;2023-09-30T09:07:10;19.18;-6.00
19340;HTU21D;9804;52.350;6.684;2023-09-30T09:09:36;19.31;-6.00
19340;HTU21D;9804;52.350;6.684;2023-09-30T09:12:02;19.38;-6.00
19340;HTU21D;9804;52.350;6.684;2023-09-30T09:14:39;19.36;-6.00
19340;HTU21D;9804;52.350;6.684;2023-09-30T09:17:07;19.59;-6.00
19340;HTU21D;9804;52.350;6.684;2023-09-30T09:19:33;19.80;-6.00
19340;HTU21D;9804;52.350;6.684;2023-09-30T09:22:01;19.63;-6.00
19340;HTU21D;9804;52.350;6.684;2023-09-30T09:27:24;19.84;-6.00
19340;HTU21D;9804;52.350;6.684;2023-09-30T09:29:49;19.91;-6.00
19340;HTU21D;9804;52.350;6.684;2023-09-30T09:32:16;20.06;-6.00
19340;HTU21D;9804;52.350;6.684;2023-09-30T09:34:43;19.85;-6.00
19340;HTU21D;9804;52.350;6.684;2023-09-30T09:37:20;19.95;-6.00
19340;HTU21D;9804;52.350;6.684;2023-09-30T09:39:50;20.12;-6.00
19340;HTU21D;9804;52.350;6.684;2023-09-30T09:44:55;20.32;-6.00
19340;HTU21D;9804;52.350;6.684;2023-09-30T09:47:21;20.42;-6.00
19340;HTU21D;9804;52.350;6.684;2023-09-30T09:49:47;20.27;-6.00
19340;HTU21D;9804;52.350;6.684;2023-09-30T09:52:13;20.32;-6.00
19340;HTU21D;9804;52.350;6.684;2023-09-30T09:54:42;20.57;-6.00
19340;HTU21D;9804;52.350;6.684;2023-09-30T09:57:09;20.89;-6.00
19340;HTU21D;9804;52.350;6.684;2023-09-30T09:59:36;20.77;-6.00
19340;HTU21D;9804;52.350;6.684;2023-09-30T10:02:04;21.03;-6.00
19340;HTU21D;9804;52.350;6.684;2023-09-30T10:04:36;21.15;-6.00
19340;HTU21D;9804;52.350;6.684;2023-09-30T10:07:02;21.31;-6.00
19340;HTU21D;9804;52.350;6.684;2023-09-30T10:09:30;21.35;-6.00
19340;HTU21D;9804;52.350;6.684;2023-09-30T10:12:00;21.32;-6.00
19340;HTU21D;9804;52.350;6.684;2023-09-30T10:14:30;21.40;-6.00
19340;HTU21D;9804;52.350;6.684;2023-09-30T10:16:57;21.04;-6.00
19340;HTU21D;9804;52.350;6.684;2023-09-30T10:19:23;21.32;-6.00
19340;HTU21D;9804;52.350;6.684;2023-09-30T10:24:50;21.67;-6.00
19340;HTU21D;9804;52.350;6.684;2023-09-30T10:29:47;21.69;-6.00
19340;HTU21D;9804;52.350;6.684;2023-09-30T10:32:12;21.69;-6.00
19340;HTU21D;9804;52.350;6.684;2023-09-30T10:34:39;21.62;-6.00
19340;HTU21D;9804;52.350;6.684;2023-09-30T10:37:20;21.70;-6.00
19340;HTU21D;9804;52.350;6.684;2023-09-30T10:39:58;21.74;-6.00
19340;HTU21D;9804;52.350;6.684;2023-09-30T10:42:43;21.70;-6.00
19340;HTU21D;9804;52.350;6.684;2023-09-30T10:51:10;21.63;-6.00
19340;HTU21D;9804;52.350;6.684;2023-09-30T10:53:44;21.43;-6.00
19340;HTU21D;9804;52.350;6.684;2023-09-30T10:56:10;21.58;-6.00
19340;HTU21D;9804;52.350;6.684;2023-09-30T10:58:39;21.87;-6.00
19340;HTU21D;9804;52.350;6.684;2023-09-30T11:01:05;21.76;-6.00
19340;HTU21D;9804;52.350;6.684;2023-09-30T11:03:30;21.57;-6.00
19340;HTU21D;9804;52.350;6.684;2023-09-30T11:05:56;21.94;-6.00
19340;HTU21D;9804;52.350;6.684;2023-09-30T11:08:21;22.27;-6.00
19340;HTU21D;9804;52.350;6.684;2023-09-30T11:10:49;22.56;-6.00
19340;HTU21D;9804;52.350;6.684;2023-09-30T11:13:16;22.54;-6.00
19340;HTU21D;9804;52.350;6.684;2023-09-30T11:15:41;22.77;-6.00
19340;HTU21D;9804;52.350;6.684;2023-09-30T11:20:39;22.55;-6.00
19340;HTU21D;9804;52.350;6.684;2023-09-30T11:23:05;22.52;-6.00
19340;HTU21D;9804;52.350;6.684;2023-09-30T11:25:35;22.82;-6.00
19340;HTU21D;9804;52.350;6.684;2023-09-30T11:28:14;22.79;-6.00
19340;HTU21D;9804;52.350;6.684;2023-09-30T11:30:57;22.51;-6.00
19340;HTU21D;9804;52.350;6.684;2023-09-30T11:33:23;22.39;-6.00
19340;HTU21D;9804;52.350;6.684;2023-09-30T11:36:15;22.69;-6.00
19340;HTU21D;9804;52.350;6.684;2023-09-30T11:38:45;22.65;-6.00
19340;HTU21D;9804;52.350;6.684;2023-09-30T11:41:11;22.72;-6.00
19340;HTU21D;9804;52.350;6.684;2023-09-30T11:43:37;22.91;-6.00
19340;HTU21D;9804;52.350;6.684;2023-09-30T11:46:11;22.94;-6.00
19340;HTU21D;9804;52.350;6.684;2023-09-30T11:48:40;22.62;-6.00
19340;HTU21D;9804;52.350;6.684;2023-09-30T11:51:21;22.69;-6.00
19340;HTU21D;9804;52.350;6.684;2023-09-30T11:53:49;23.16;-6.00
19340;HTU21D;9804;52.350;6.684;2023-09-30T11:56:15;23.55;-6.00
19340;HTU21D;9804;52.350;6.684;2023-09-30T11:58:41;23.03;-6.00
19340;HTU21D;9804;52.350;6.684;2023-09-30T12:01:06;23.25;-6.00
19340;HTU21D;9804;52.350;6.684;2023-09-30T12:03:32;23.00;-6.00
19340;HTU21D;9804;52.350;6.684;2023-09-30T12:06:01;23.30;-6.00
19340;HTU21D;9804;52.350;6.684;2023-09-30T12:08:27;23.43;-6.00
19340;HTU21D;9804;52.350;6.684;2023-09-30T12:10:54;23.98;-6.00
19340;HTU21D;9804;52.350;6.684;2023-09-30T12:13:21;23.91;-6.00
19340;HTU21D;9804;52.350;6.684;2023-09-30T12:15:47;23.74;-6.00
19340;HTU21D;9804;52.350;6.684;2023-09-30T12:18:12;24.02;-6.00
19340;HTU21D;9804;52.350;6.684;2023-09-30T12:20:39;23.96;-6.00
19340;HTU21D;9804;52.350;6.684;2023-09-30T12:23:06;23.92;-6.00
19340;HTU21D;9804;52.350;6.684;2023-09-30T12:25:32;23.69;-6.00
19340;HTU21D;9804;52.350;6.684;2023-09-30T12:27:58;23.66;-6.00
19340;HTU21D;9804;52.350;6.684;2023-09-30T12:30:24;23.56;-6.00
19340;HTU21D;9804;52.350;6.684;2023-09-30T12:32:49;23.27;-6.00
19340;HTU21D;9804;52.350;6.684;2023-09-30T12:35:15;23.54;-6.00
19340;HTU21D;9804;52.350;6.684;2023-09-30T12:37:40;23.37;-6.00
19340;HTU21D;9804;52.350;6.684;2023-09-30T12:40:08;23.51;-6.00
19340;HTU21D;9804;52.350;6.684;2023-09-30T12:42:33;23.84;-6.00
19340;HTU21D;9804;52.350;6.684;2023-09-30T12:45:02;23.99;-6.00
19340;HTU21D;9804;52.350;6.684;2023-09-30T12:47:28;24.38;-6.00
19340;HTU21D;9804;52.350;6.684;2023-09-30T12:49:53;23.82;-6.00
19340;HTU21D;9804;52.350;6.684;2023-09-30T12:52:20;23.91;-6.00
19340;HTU21D;9804;52.350;6.684;2023-09-30T12:54:45;23.84;-6.00
19340;HTU21D;9804;52.350;6.684;2023-09-30T12:57:10;23.80;-6.00
19340;HTU21D;9804;52.350;6.684;2023-09-30T12:59:38;24.25;-6.00
19340;HTU21D;9804;52.350;6.684;2023-09-30T13:02:04;24.15;-6.00
19340;HTU21D;9804;52.350;6.684;2023-09-30T13:04:30;24.24;-6.00
19340;HTU21D;9804;52.350;6.684;2023-09-30T13:06:55;24.36;-6.00
19340;HTU21D;9804;52.350;6.684;2023-09-30T13:09:21;24.69;-6.00
19340;HTU21D;9804;52.350;6.684;2023-09-30T13:11:46;24.11;-6.00
19340;HTU21D;9804;52.350;6.684;2023-09-30T13:14:12;23.88;-6.00
19340;HTU21D;9804;52.350;6.684;2023-09-30T13:16:38;24.01;-6.00
19340;HTU21D;9804;52.350;6.684;2023-09-30T13:19:04;24.18;-6.00
19340;HTU21D;9804;52.350;6.684;2023-09-30T13:21:29;24.14;-6.00
19340;HTU21D;9804;52.350;6.684;2023-09-30T13:23:55;24.20;-6.00
19340;HTU21D;9804;52.350;6.684;2023-09-30T13:26:20;23.65;-6.00
19340;HTU21D;9804;52.350;6.684;2023-09-30T13:28:46;24.10;-6.00
19340;HTU21D;9804;52.350;6.684;2023-09-30T13:31:11;23.89;-6.00
19340;HTU21D;9804;52.350;6.684;2023-09-30T13:33:37;23.97;-6.00
19340;HTU21D;9804;52.350;6.684;2023-09-30T13:36:03;23.90;-6.00
19340;HTU21D;9804;52.350;6.684;2023-09-30T13:38:29;23.82;-6.00
19340;HTU21D;9804;52.350;6.684;2023-09-30T13:40:54;23.32;-6.00
19340;HTU21D;9804;52.350;6.684;2023-09-30T13:43:20;23.25;-6.00
19340;HTU21D;9804;52.350;6.684;2023-09-30T13:45:45;23.31;-6.00
19340;HTU21D;9804;52.350;6.684;2023-09-30T13:48:11;23.64;-6.00
19340;HTU21D;9804;52.350;6.684;2023-09-30T13:50:36;23.26;-6.00
19340;HTU21D;9804;52.350;6.684;2023-09-30T13:53:02;23.40;-6.00
19340;HTU21D;9804;52.350;6.684;2023-09-30T13:55:27;22.78;-6.00
19340;HTU21D;9804;52.350;6.684;2023-09-30T13:57:53;22.68;-6.00
19340;HTU21D;9804;52.350;6.684;2023-09-30T14:00:18;22.24;-6.00
19340;HTU21D;9804;52.350;6.684;2023-09-30T14:02:44;22.40;-6.00
19340;HTU21D;9804;52.350;6.684;2023-09-30T14:05:10;22.31;-6.00
19340;HTU21D;9804;52.350;6.684;2023-09-30T14:07:38;22.41;-6.00
19340;HTU21D;9804;52.350;6.684;2023-09-30T14:10:06;22.38;-6.00
19340;HTU21D;9804;52.350;6.684;2023-09-30T14:12:31;22.34;-6.00
19340;HTU21D;9804;52.350;6.684;2023-09-30T14:14:57;22.36;-6.00
19340;HTU21D;9804;52.350;6.684;2023-09-30T14:17:22;22.28;-6.00
19340;HTU21D;9804;52.350;6.684;2023-09-30T14:19:47;22.40;-6.00
19340;HTU21D;9804;52.350;6.684;2023-09-30T14:22:13;22.66;-6.00
19340;HTU21D;9804;52.350;6.684;2023-09-30T14:24:38;22.52;-6.00
19340;HTU21D;9804;52.350;6.684;2023-09-30T14:27:04;22.53;-6.00
19340;HTU21D;9804;52.350;6.684;2023-09-30T14:29:31;22.82;-6.00
19340;HTU21D;9804;52.350;6.684;2023-09-30T14:31:57;22.75;-6.00
19340;HTU21D;9804;52.350;6.684;2023-09-30T14:34:23;22.98;-6.00
19340;HTU21D;9804;52.350;6.684;2023-09-30T14:36:49;22.91;-6.00
19340;HTU21D;9804;52.350;6.684;2023-09-30T14:39:14;22.77;-6.00
19340;HTU21D;9804;52.350;6.684;2023-09-30T14:41:44;22.62;-6.00
19340;HTU21D;9804;52.350;6.684;2023-09-30T14:44:10;23.11;-6.00
19340;HTU21D;9804;52.350;6.684;2023-09-30T14:46:37;23.51;-6.00
19340;HTU21D;9804;52.350;6.684;2023-09-30T14:49:03;23.43;-6.00
19340;HTU21D;9804;52.350;6.684;2023-09-30T14:51:29;23.79;-6.00
19340;HTU21D;9804;52.350;6.684;2023-09-30T14:53:54;23.81;-6.00
19340;HTU21D;9804;52.350;6.684;2023-09-30T14:56:19;23.90;-6.00
19340;HTU21D;9804;52.350;6.684;2023-09-30T14:58:45;23.87;-6.00
19340;HTU21D;9804;52.350;6.684;2023-09-30T15:01:11;23.77;-6.00
19340;HTU21D;9804;52.350;6.684;2023-09-30T15:03:39;23.52;-6.00
19340;HTU21D;9804;52.350;6.684;2023-09-30T15:06:05;23.52;-6.00
19340;HTU21D;9804;52.350;6.684;2023-09-30T15:08:31;23.54;-6.00
19340;HTU21D;9804;52.350;6.684;2023-09-30T15:10:58;23.42;-6.00
19340;HTU21D;9804;52.350;6.684;2023-09-30T15:13:24;23.56;-6.00
19340;HTU21D;9804;52.350;6.684;2023-09-30T15:15:49;23.36;-6.00
19340;HTU21D;9804;52.350;6.684;2023-09-30T15:18:15;23.39;-6.00
19340;HTU21D;9804;52.350;6.684;2023-09-30T15:20:40;23.54;-6.00
19340;HTU21D;9804;52.350;6.684;2023-09-30T15:23:06;23.16;-6.00
19340;HTU21D;9804;52.350;6.684;2023-09-30T15:25:31;23.15;-6.00
19340;HTU21D;9804;52.350;6.684;2023-09-30T15:27:57;22.84;-6.00
19340;HTU21D;9804;52.350;6.684;2023-09-30T15:30:22;22.98;-6.00
19340;HTU21D;9804;52.350;6.684;2023-09-30T15:32:51;22.82;-6.00
19340;HTU21D;9804;52.350;6.684;2023-09-30T15:35:18;22.72;-6.00
19340;HTU21D;9804;52.350;6.684;2023-09-30T15:37:44;22.52;-6.00
19340;HTU21D;9804;52.350;6.684;2023-09-30T15:40:09;22.55;-6.00
19340;HTU21D;9804;52.350;6.684;2023-09-30T15:42:35;22.10;-6.00